Fascination — C6FM9 — position and weather

sailwx.info

Track history (hours):
 
Tides and Currents Weather Stations Pressure Air Temp Water Temp Dewpoint Dewpoint Depression Visibility Wind Speed Wind Dir Waves Ship Positions

Fascination

Operator: Carnival Cruise Lines

Last reported at 2017-Jun-21 07:00 UTC. Time now 2017-Jun-22 16:39 UTC.
Position N 13°06' W 059°42'.

Type: Ship. MMSI: 309682000.

Wind from 250 at 27 knots

Barometer 1019.3 mb
Air temperature 27.0 ° C
Visibility: greater than 10.8 NM
Dewpoint 22.6 ° C
Water temperature 27.0 ° C

Date/timePositionNaut miles runAvg speedWind from/ knotsBaromVisibWave heightAir tempDewpointWater temp
2017-Jun-21 07:00N 13°06' W 059°42'9632.1 250 / 271019.310.8 27.022.627.0
2017-Jun-21 04:00N 14°12' W 060°54'84 9.4 210 / 261020.310.8
2017-Jun-20 19:00N 15°18' W 061°48'6716.3 250 / 311021.310.8 27.022.627.0
2017-Jun-20 14:53N 16°14' W 062°26'1314.8
2017-Jun-20 14:00N 16°25' W 062°33'714.6
2017-Jun-20 13:30N 16°32' W 062°37'1711.4
2017-Jun-20 12:00N 16°48' W 062°42'2512.5 250 / 301021.3 5.4 28.025.227.5
2017-Jun-20 10:00N 17°06' W 063°00'2519.5 250 / 311020.3 5.4 28.026.627.3
2017-Jun-20 08:42N 17°30' W 063°06'313.9
2017-Jun-20 08:29N 17°34' W 063°07'713.6
2017-Jun-20 07:59N 17°40' W 063°07'612.9
2017-Jun-20 07:30N 17°44' W 063°12'2 3.9
2017-Jun-20 07:00N 17°42' W 063°12'9216.3 230 / 301021.310.8 27.022.627.0
2017-Jun-20 06:57N 17°47' W 063°20'612.2
2017-Jun-20 06:27N 17°49' W 063°26'510.4
2017-Jun-20 06:00N 17°50' W 063°31'510.3
2017-Jun-20 05:29N 17°52' W 063°36'510.5
2017-Jun-20 05:00N 17°54' W 063°41'510.1
2017-Jun-20 04:30N 17°56' W 063°46'9 5.9
2017-Jun-20 03:00N 18°00' W 063°54'4013.3 220 / 251023.310.8 29.026.225.0
2017-Jun-20 00:00N 18°00' W 064°36'1511.4 200 / 251021.3 5.4 29.026.226.5
2017-Jun-19 22:40N 18°09' W 064°49'311.8
2017-Jun-19 22:25N 18°10' W 064°52'410.5
2017-Jun-19 22:00N 18°13' W 064°55'28 1.9
2017-Jun-19 07:00N 18°36' W 065°12'5312.1 220 / 291021.310.8 27.022.627.0
2017-Jun-19 02:34N 18°28' W 066°08'1 8.8
2017-Jun-19 02:30N 18°28' W 066°07'1 0.4
2017-Jun-19 00:29N 18°28' W 066°07'0 0.0
2017-Jun-18 22:55N 18°28' W 066°07'0 0.0
2017-Jun-18 20:15N 18°28' W 066°07'0 0.0
2017-Jun-18 19:15N 18°28' W 066°07'0 0.0
2017-Jun-18 17:20N 18°28' W 066°07'0 0.0
2017-Jun-18 15:31N 18°28' W 066°07'0 0.0
2017-Jun-18 15:04N 18°28' W 066°07'0 0.0
2017-Jun-18 14:06N 18°28' W 066°07'0 0.0
2017-Jun-18 13:27N 18°28' W 066°07'0 0.0
2017-Jun-18 12:48N 18°28' W 066°07'0 0.0
2017-Jun-18 12:29N 18°28' W 066°07'0 0.0
2017-Jun-18 12:00N 18°28' W 066°07'0 0.0
2017-Jun-18 11:29N 18°28' W 066°07'0 0.0
2017-Jun-18 10:59N 18°28' W 066°07'0 0.0
2017-Jun-18 10:30N 18°28' W 066°07'6810.8
2017-Jun-18 04:13N 18°10' W 064°58'316.2
2017-Jun-18 04:00N 18°10' W 064°54'7016.1
2017-Jun-17 23:40N 18°02' W 063°41'715.8
2017-Jun-17 23:14N 18°02' W 063°34'415.9
2017-Jun-17 23:00N 18°02' W 063°30'815.8
2017-Jun-17 22:31N 18°01' W 063°22'815.4
2017-Jun-17 22:00N 18°01' W 063°14'815.5
2017-Jun-17 21:29N 18°00' W 063°05'3 0.3
2017-Jun-17 11:28N 18°01' W 063°03'0 0.9
2017-Jun-17 10:59N 18°00' W 063°03'5 9.5
2017-Jun-17 10:29N 18°01' W 063°08'816.9
2017-Jun-17 10:00N 18°02' W 063°16'714.1
2017-Jun-17 09:30N 18°04' W 063°24'3 6.3
2017-Jun-17 09:00N 18°01' W 063°25'4 7.5
2017-Jun-17 08:29N 18°02' W 063°21'4 8.0
2017-Jun-17 07:59N 18°05' W 063°24'5 9.4
2017-Jun-17 07:30N 18°06' W 063°28'5 9.4
2017-Jun-17 07:00N 18°08' W 063°33'4 8.9
2017-Jun-17 06:30N 18°09' W 063°38'4 7.6
2017-Jun-17 06:00N 18°06' W 063°40'5 9.3
2017-Jun-17 05:30N 18°01' W 063°40'10 8.9
2017-Jun-17 04:26N 17°59' W 063°30'4 9.0
2017-Jun-17 04:00N 17°59' W 063°26'4 8.5
2017-Jun-17 03:29N 17°57' W 063°22'4 9.1
2017-Jun-17 03:00N 17°54' W 063°18'5 9.2
2017-Jun-17 02:30N 17°50' W 063°15'4 8.8
2017-Jun-17 02:00N 17°47' W 063°12'5 8.7
2017-Jun-17 01:28N 17°44' W 063°08'4 9.1
2017-Jun-17 01:00N 17°40' W 063°07'5 9.2
2017-Jun-17 00:30N 17°35' W 063°07'61 3.9
2017-Jun-16 09:05N 16°44' W 062°32'116.8
2017-Jun-16 09:00N 16°43' W 062°32'816.9
2017-Jun-16 08:30N 16°36' W 062°28'816.9
2017-Jun-16 08:00N 16°28' W 062°24'  
2017-Jun-12 22:52N 18°06' W 064°46'411.5
2017-Jun-12 22:30N 18°09' W 064°50'611.0
2017-Jun-12 22:00N 18°12' W 064°54'5 0.4
2017-Jun-12 10:19N 18°17' W 064°56'  
Track history (hours):
 
Tides and Currents Weather Stations Pressure Air Temp Water Temp Dewpoint Dewpoint Depression Visibility Wind Speed Wind Dir Waves Ship Positions

Fascination

Operator: Carnival Cruise Lines

Last reported at 2017-Jun-21 07:00 UTC. Time now 2017-Jun-22 16:39 UTC.
Position N 13°06' W 059°42'.

Type: Ship. MMSI: 309682000.

Wind from 250 at 27 knots

Barometer 1019.3 mb
Air temperature 27.0 ° C
Visibility: greater than 10.8 NM
Dewpoint 22.6 ° C
Water temperature 27.0 ° C

Date/timePositionNaut miles runAvg speedWind from/ knotsBaromVisibWave heightAir tempDewpointWater temp
2017-Jun-21 07:00N 13°06' W 059°42'9632.1 250 / 271019.310.8 27.022.627.0
2017-Jun-21 04:00N 14°12' W 060°54'84 9.4 210 / 261020.310.8
2017-Jun-20 19:00N 15°18' W 061°48'6716.3 250 / 311021.310.8 27.022.627.0
2017-Jun-20 14:53N 16°14' W 062°26'1314.8
2017-Jun-20 14:00N 16°25' W 062°33'714.6
2017-Jun-20 13:30N 16°32' W 062°37'1711.4
2017-Jun-20 12:00N 16°48' W 062°42'2512.5 250 / 301021.3 5.4 28.025.227.5
2017-Jun-20 10:00N 17°06' W 063°00'2519.5 250 / 311020.3 5.4 28.026.627.3
2017-Jun-20 08:42N 17°30' W 063°06'313.9
2017-Jun-20 08:29N 17°34' W 063°07'713.6
2017-Jun-20 07:59N 17°40' W 063°07'612.9
2017-Jun-20 07:30N 17°44' W 063°12'2 3.9
2017-Jun-20 07:00N 17°42' W 063°12'9216.3 230 / 301021.310.8 27.022.627.0
2017-Jun-20 06:57N 17°47' W 063°20'612.2
2017-Jun-20 06:27N 17°49' W 063°26'510.4
2017-Jun-20 06:00N 17°50' W 063°31'510.3
2017-Jun-20 05:29N 17°52' W 063°36'510.5
2017-Jun-20 05:00N 17°54' W 063°41'510.1
2017-Jun-20 04:30N 17°56' W 063°46'9 5.9
2017-Jun-20 03:00N 18°00' W 063°54'4013.3 220 / 251023.310.8 29.026.225.0
2017-Jun-20 00:00N 18°00' W 064°36'1511.4 200 / 251021.3 5.4 29.026.226.5
2017-Jun-19 22:40N 18°09' W 064°49'311.8
2017-Jun-19 22:25N 18°10' W 064°52'410.5
2017-Jun-19 22:00N 18°13' W 064°55'28 1.9
2017-Jun-19 07:00N 18°36' W 065°12'5312.1 220 / 291021.310.8 27.022.627.0
2017-Jun-19 02:34N 18°28' W 066°08'1 8.8
2017-Jun-19 02:30N 18°28' W 066°07'1 0.4
2017-Jun-19 00:29N 18°28' W 066°07'0 0.0
2017-Jun-18 22:55N 18°28' W 066°07'0 0.0
2017-Jun-18 20:15N 18°28' W 066°07'0 0.0
2017-Jun-18 19:15N 18°28' W 066°07'0 0.0
2017-Jun-18 17:20N 18°28' W 066°07'0 0.0
2017-Jun-18 15:31N 18°28' W 066°07'0 0.0
2017-Jun-18 15:04N 18°28' W 066°07'0 0.0
2017-Jun-18 14:06N 18°28' W 066°07'0 0.0
2017-Jun-18 13:27N 18°28' W 066°07'0 0.0
2017-Jun-18 12:48N 18°28' W 066°07'0 0.0
2017-Jun-18 12:29N 18°28' W 066°07'0 0.0
2017-Jun-18 12:00N 18°28' W 066°07'0 0.0
2017-Jun-18 11:29N 18°28' W 066°07'0 0.0
2017-Jun-18 10:59N 18°28' W 066°07'0 0.0
2017-Jun-18 10:30N 18°28' W 066°07'6810.8
2017-Jun-18 04:13N 18°10' W 064°58'316.2
2017-Jun-18 04:00N 18°10' W 064°54'7016.1
2017-Jun-17 23:40N 18°02' W 063°41'715.8
2017-Jun-17 23:14N 18°02' W 063°34'415.9
2017-Jun-17 23:00N 18°02' W 063°30'815.8
2017-Jun-17 22:31N 18°01' W 063°22'815.4
2017-Jun-17 22:00N 18°01' W 063°14'815.5
2017-Jun-17 21:29N 18°00' W 063°05'3 0.3
2017-Jun-17 11:28N 18°01' W 063°03'0 0.9
2017-Jun-17 10:59N 18°00' W 063°03'5 9.5
2017-Jun-17 10:29N 18°01' W 063°08'816.9
2017-Jun-17 10:00N 18°02' W 063°16'714.1
2017-Jun-17 09:30N 18°04' W 063°24'3 6.3
2017-Jun-17 09:00N 18°01' W 063°25'4 7.5
2017-Jun-17 08:29N 18°02' W 063°21'4 8.0
2017-Jun-17 07:59N 18°05' W 063°24'5 9.4
2017-Jun-17 07:30N 18°06' W 063°28'5 9.4
2017-Jun-17 07:00N 18°08' W 063°33'4 8.9
2017-Jun-17 06:30N 18°09' W 063°38'4 7.6
2017-Jun-17 06:00N 18°06' W 063°40'5 9.3
2017-Jun-17 05:30N 18°01' W 063°40'10 8.9
2017-Jun-17 04:26N 17°59' W 063°30'4 9.0
2017-Jun-17 04:00N 17°59' W 063°26'4 8.5
2017-Jun-17 03:29N 17°57' W 063°22'4 9.1
2017-Jun-17 03:00N 17°54' W 063°18'5 9.2
2017-Jun-17 02:30N 17°50' W 063°15'4 8.8
2017-Jun-17 02:00N 17°47' W 063°12'5 8.7
2017-Jun-17 01:28N 17°44' W 063°08'4 9.1
2017-Jun-17 01:00N 17°40' W 063°07'5 9.2
2017-Jun-17 00:30N 17°35' W 063°07'61 3.9
2017-Jun-16 09:05N 16°44' W 062°32'116.8
2017-Jun-16 09:00N 16°43' W 062°32'816.9
2017-Jun-16 08:30N 16°36' W 062°28'816.9
2017-Jun-16 08:00N 16°28' W 062°24'  
2017-Jun-12 22:52N 18°06' W 064°46'411.5
2017-Jun-12 22:30N 18°09' W 064°50'611.0
2017-Jun-12 22:00N 18°12' W 064°54'5 0.4
2017-Jun-12 10:19N 18°17' W 064°56'  

Dump ship's entire track history